Portada
METAR-TAF:

METAR-TAF

Aeroports :

Biskra, Algèria

latitud: 34-48N, longitud: 005-44E, altitud: 87 m

Observació

L'informe es va fer fa 39 minuts, a les 21:00 UTC
Vent 18 kt del Nord-Oest
Temperatura 20°C
Humitat 35%
Pressió 1016 hPa
Visibilitat 10 km o més
sense núvols per sota de 1500 mi sense presència de cumulonimbus.

METAR: DAUB 262100Z 31018KT CAVOK 20/04 Q1016

Hora: 22:39 (21:39 UTC)

Pronòstic

L'informe es va fer fa 4 hores i 39 minuts, a les 17:00 UTC
Pronòstic vàlid del 26 a les 18 UTC al 27 a les 18 UTC
Vent 14 kt del Nord-Oest
Visibilitat 10 km o més
Escasses núvols a una alçada de 4000 ft
Temporalment
l' 26 a les 18 UTC al 27 a les 04 UTC
Vent 15 kt del Nord/Nord-Oest amb ràfegues de 35 kt
Visibilitat: 2000 m
torb baixa de sorra
Evolucionant progressivament
l' 27 a les 06 UTC al 27 a les 09 UTC
Vent 8 kt del Sud/Sud-Est

TAF: DAUB 261700Z 2618/2718 31014KT 9999 FEW040 TEMPO 2618/2704 33015G35KT 2000 DRSA NSC BECMG 2706/2709 16008KT

Observacions i pronòstics meteorològics de més de 4000 aeroports (METAR i TAF).

Les estacions disponibles són els punts grocs i vermells al mapa.

Posi el ratolí al punt desitjat per veure el nom de l'estació.

Feu clic per veure les observacions i els pronòstics meteorològics.

Per canviar el mapa: feu clic els botons verds amb una creu de color negre per apropar; al botó verd amb un guió per allunyar la imatge; o en les fletxes verdes per a mapes adjacents.


METAR-TAF: